Time;durP1;ratioP1;P1;durP2;ratioP2;P2;SDS_P1;SDS_P2;PMS_P1;PMS_P2;Temp;Humidity;BMP_temperature;BMP_pressure;BME280_temperature;BME280_humidity;BME280_pressure;Samples;Min_cycle;Max_cycle;Signal;HPM_P1;HPM_P2
2022/12/04 07:26:30;;;;;;;;;;;;;;;7.46;64.06;96292.69;4246911;27;10309;-73
2022/12/04 07:28:33;;;;;;;;;;;;;;;7.76;63.73;96283.72;4245323;27;5605;-72
2022/12/04 07:30:37;;;;;;;;;;;;;;;7.99;63.32;96291.41;4244673;27;5776;-70
2022/12/04 07:32:40;;;;;;;;;;;;;;;8.18;62.90;96289.97;4239918;27;5601;-70
2022/12/04 07:34:43;;;;;;;;;;;;;;;8.30;62.81;96287.63;4248136;27;5785;-69
2022/12/04 07:36:46;;;;;;;;;;;;;;;8.39;62.78;96289.16;4245276;27;5826;-70
2022/12/04 07:38:48;;;;;;;;;;;;;;;8.51;62.71;96290.25;4213229;28;5734;-70
2022/12/04 07:40:51;;;;;;;;;;;;;;;8.58;62.44;96296.34;4231116;27;5694;-68
2022/12/04 07:42:55;;;;;;;;;;;;;;;8.65;62.25;96299.84;4246206;27;5771;-71
2022/12/04 07:44:58;;;;;;;;;;;;;;;8.70;62.39;96302.72;4235463;27;5083;-69
2022/12/04 07:47:01;;;;;;;;;;;;;;;8.74;61.87;96298.72;4249265;27;5611;-68
2022/12/04 07:49:03;;;;;;;;;;;;;;;8.77;62.03;96310.69;4248433;27;5601;-69
2022/12/04 07:51:08;;;;;;;;;;;;;;;8.81;61.87;96306.63;4261886;27;5587;-70
2022/12/04 07:53:11;;;;;;;;;;;;;;;8.85;61.91;96317.63;4265305;27;5591;-69
2022/12/04 07:55:14;;;;;;;;;;;;;;;8.88;61.68;96309.31;4253917;27;5695;-69
2022/12/04 07:57:24;;;;;;;;;;;;;;;8.92;61.61;96308.72;4247886;27;5610;-69
2022/12/04 07:59:28;;;;;;;;;;;;;;;8.97;61.36;96308.16;4229810;28;5710;-70
2022/12/04 08:01:31;;;;;;;;;;;;;;;8.97;61.47;96316.06;4243775;27;5618;-71
2022/12/04 08:03:34;;;;;;;;;;;;;;;8.97;61.41;96305.53;4250845;27;5937;-69
2022/12/04 08:05:37;;;;;;;;;;;;;;;8.97;61.57;96303.69;4254659;27;5668;-70
2022/12/04 08:07:40;;;;;;;;;;;;;;;8.99;61.40;96306.13;4234703;27;5668;-72
2022/12/04 08:09:42;;;;;;;;;;;;;;;9.00;61.04;96302.50;4243136;27;5677;-72
2022/12/04 08:11:45;;;;;;;;;;;;;;;9.04;61.41;96312.44;4230743;28;5763;-70
2022/12/04 08:13:48;;;;;;;;;;;;;;;9.05;61.15;96310.63;4247619;27;5677;-68
2022/12/04 08:15:52;;;;;;;;;;;;;;;9.06;61.21;96312.28;4244089;27;5893;-70
2022/12/04 08:17:55;;;;;;;;;;;;;;;9.07;61.00;96313.91;4251847;27;5638;-74
2022/12/04 08:19:58;;;;;;;;;;;;;;;9.09;60.88;96306.59;4243406;27;5692;-69
2022/12/04 08:22:01;;;;;;;;;;;;;;;9.12;61.03;96313.31;4233902;27;5661;-73
2022/12/04 08:24:04;;;;;;;;;;;;;;;9.13;60.63;96307.00;4258451;27;5575;-73
2022/12/04 08:26:08;;;;;;;;;;;;;;;9.14;60.79;96303.38;4249009;27;5748;-70
2022/12/04 08:28:11;;;;;;;;;;;;;;;9.13;60.77;96289.38;4219062;28;5680;-75
2022/12/04 08:30:14;;;;;;;;;;;;;;;9.15;60.41;96297.88;4220258;28;5803;-69
2022/12/04 08:32:19;;;;;;;;;;;;;;;9.15;60.58;96297.06;4234675;28;5614;-74
2022/12/04 08:34:22;;;;;;;;;;;;;;;9.16;60.66;96299.50;4232340;28;5840;-72
2022/12/04 08:36:25;;;;;;;;;;;;;;;9.15;60.51;96300.53;4244406;27;5662;-69
2022/12/04 08:38:28;;;;;;;;;;;;;;;9.16;60.72;96309.25;4252291;27;5591;-70
2022/12/04 08:40:32;;;;;;;;;;;;;;;9.16;60.40;96306.63;4221338;27;5617;-71
2022/12/04 08:42:34;;;;;;;;;;;;;;;9.17;60.46;96306.41;4227799;28;5088;-69
2022/12/04 08:44:37;;;;;;;;;;;;;;;9.20;60.25;96306.03;4223077;28;5851;-72
2022/12/04 08:46:40;;;;;;;;;;;;;;;9.20;60.38;96316.59;4224882;27;5825;-74
2022/12/04 08:48:46;;;;;;;;;;;;;;;9.20;60.10;96306.03;4247233;27;5672;-70
2022/12/04 08:50:49;;;;;;;;;;;;;;;9.22;60.11;96309.28;4224599;27;5760;-73
2022/12/04 08:52:52;;;;;;;;;;;;;;;9.24;60.02;96309.09;4235607;27;5672;-75
2022/12/04 08:54:55;;;;;;;;;;;;;;;9.25;59.83;96311.53;4226987;28;5750;-69
2022/12/04 08:56:58;;;;;;;;;;;;;;;9.24;59.92;96317.81;4234228;28;5665;-71
2022/12/04 08:59:01;;;;;;;;;;;;;;;9.25;59.93;96310.72;4232737;28;5582;-70
2022/12/04 09:01:05;;;;;;;;;;;;;;;9.27;60.04;96312.16;4235141;28;5583;-74
2022/12/04 09:03:11;;;;;;;;;;;;;;;9.26;59.73;96317.63;4226364;28;5617;-74
2022/12/04 09:05:15;;;;;;;;;;;;;;;9.28;59.69;96323.50;4226098;27;5612;-74
2022/12/04 09:07:18;;;;;;;;;;;;;;;9.30;59.81;96324.97;4227058;28;5628;-68
2022/12/04 09:09:21;;;;;;;;;;;;;;;9.32;59.76;96325.56;4225241;28;5621;-68
2022/12/04 09:11:26;;;;;;;;;;;;;;;9.30;59.56;96332.88;4212203;28;5735;-68
2022/12/04 09:13:28;;;;;;;;;;;;;;;9.31;59.38;96334.50;4223896;27;5634;-68
2022/12/04 09:15:32;;;;;;;;;;;;;;;9.32;59.61;96333.50;4229272;28;5685;-68
2022/12/04 09:17:35;;;;;;;;;;;;;;;9.31;59.61;96334.50;4224194;28;5824;-68
2022/12/04 09:19:38;;;;;;;;;;;;;;;9.31;59.35;96328.41;4227139;27;5602;-68
2022/12/04 09:21:42;;;;;;;;;;;;;;;9.32;59.19;96336.13;4222551;27;5672;-69
2022/12/04 09:23:46;;;;;;;;;;;;;;;9.33;59.37;96331.66;4226264;27;5820;-70
2022/12/04 09:25:49;;;;;;;;;;;;;;;9.35;59.27;96332.28;4233917;27;5713;-69
2022/12/04 09:27:51;;;;;;;;;;;;;;;9.37;59.16;96332.06;4230735;27;5707;-69
2022/12/04 09:29:54;;;;;;;;;;;;;;;9.38;59.04;96333.69;4224745;27;5732;-68
2022/12/04 09:31:57;;;;;;;;;;;;;;;9.39;59.36;96336.13;4228409;27;5594;-68
2022/12/04 09:34:01;;;;;;;;;;;;;;;9.40;59.29;96337.78;4226288;27;5629;-69
2022/12/04 09:36:05;;;;;;;;;;;;;;;9.41;59.19;96341.25;4229302;27;5100;-69
2022/12/04 09:38:09;;;;;;;;;;;;;;;9.39;59.08;96336.13;4231983;27;5594;-69
2022/12/04 09:40:22;;;;;;;;;;;;;;;9.41;58.82;96330.69;4241472;27;5682;-69
2022/12/04 09:42:34;;;;;;;;;;;;;;;9.42;58.84;96329.69;4221903;27;5684;-69
2022/12/04 09:44:41;;;;;;;;;;;;;;;9.42;58.91;96325.22;4229060;28;5744;-69
2022/12/04 09:46:49;;;;;;;;;;;;;;;9.43;58.75;96331.31;4224941;27;5610;-69
2022/12/04 09:48:57;;;;;;;;;;;;;;;9.41;58.77;96328.06;4231624;28;5622;-69
2022/12/04 09:51:01;;;;;;;;;;;;;;;9.42;58.62;96327.03;4229420;28;5598;-69
2022/12/04 09:53:10;;;;;;;;;;;;;;;9.45;58.39;96327.44;4232164;28;5811;-69
2022/12/04 09:55:20;;;;;;;;;;;;;;;9.48;58.41;96326.22;4232461;28;5701;-69
2022/12/04 09:57:29;;;;;;;;;;;;;;;9.50;58.53;96329.47;4233108;27;5586;-69
2022/12/04 09:59:32;;;;;;;;;;;;;;;9.51;58.24;96333.75;4223883;27;5618;-69
2022/12/04 10:01:43;;;;;;;;;;;;;;;9.49;58.29;96325.22;4228930;28;5756;-69
2022/12/04 10:03:46;;;;;;;;;;;;;;;9.52;58.02;96328.31;4234024;28;6405;-69
2022/12/04 10:05:57;;;;;;;;;;;;;;;9.52;58.11;96323.03;4233707;28;5598;-69
2022/12/04 10:08:06;;;;;;;;;;;;;;;9.53;58.08;96314.09;4223252;28;5668;-69
2022/12/04 10:10:23;;;;;;;;;;;;;;;9.56;58.08;96304.97;4226179;28;5601;-69
2022/12/04 10:12:34;;;;;;;;;;;;;;;9.56;58.12;96307.59;4225759;28;5673;-69
2022/12/04 10:14:54;;;;;;;;;;;;;;;9.55;57.95;96305.97;4227475;28;5586;-69
2022/12/04 10:17:18;;;;;;;;;;;;;;;9.57;58.02;96306.59;4231533;28;5598;-69
2022/12/04 10:19:29;;;;;;;;;;;;;;;9.57;58.00;96309.22;4205104;28;5629;-69
2022/12/04 10:21:49;;;;;;;;;;;;;;;9.56;57.91;96310.22;4233542;28;5594;-69
2022/12/04 10:24:06;;;;;;;;;;;;;;;9.55;57.63;96308.59;4217725;28;5735;-69
2022/12/04 10:26:15;;;;;;;;;;;;;;;9.56;57.81;96310.22;4217372;27;6373;-69
2022/12/04 10:28:25;;;;;;;;;;;;;;;9.56;57.61;96307.59;4232173;27;5607;-69
2022/12/04 10:30:31;;;;;;;;;;;;;;;9.57;57.62;96304.75;4251411;27;5591;-68
2022/12/04 10:32:34;;;;;;;;;;;;;;;9.60;57.72;96306.19;4216235;28;5860;-69
2022/12/04 10:34:38;;;;;;;;;;;;;;;9.61;57.43;96307.81;4231148;28;5783;-69
2022/12/04 10:36:53;;;;;;;;;;;;;;;9.65;57.33;96302.97;4231252;28;5826;-69
2022/12/04 10:38:58;;;;;;;;;;;;;;;9.66;57.35;96310.69;4232638;28;5594;-69
2022/12/04 10:41:10;;;;;;;;;;;;;;;9.66;57.26;96307.22;4220394;28;5609;-67
2022/12/04 10:43:29;;;;;;;;;;;;;;;9.63;57.45;96289.97;4227170;27;6011;-70
2022/12/04 10:45:32;;;;;;;;;;;;;;;9.67;57.14;96291.19;4218303;28;5712;-68
2022/12/04 10:47:45;;;;;;;;;;;;;;;9.66;57.34;96286.91;4233250;28;5606;-69
2022/12/04 10:49:49;;;;;;;;;;;;;;;9.65;57.31;96292.41;4220179;28;5617;-68
2022/12/04 10:51:53;;;;;;;;;;;;;;;9.67;57.23;96290.38;4235854;27;5670;-69
2022/12/04 10:53:57;;;;;;;;;;;;;;;9.66;57.29;96283.47;4231704;27;5709;-70
2022/12/04 10:56:16;;;;;;;;;;;;;;;9.63;57.07;96282.06;4217356;28;5684;-69
2022/12/04 10:58:21;;;;;;;;;;;;;;;9.70;57.20;96295.25;4227015;28;5697;-69
2022/12/04 11:00:28;;;;;;;;;;;;;;;9.69;56.85;96290.97;4224330;27;5669;-69
2022/12/04 11:02:33;;;;;;;;;;;;;;;9.71;57.04;96292.41;4216915;28;5709;-69
2022/12/04 11:04:37;;;;;;;;;;;;;;;9.69;57.13;96289.16;4207482;28;5617;-69
2022/12/04 11:06:40;;;;;;;;;;;;;;;9.71;57.01;96297.69;4218805;28;5695;-67
2022/12/04 11:08:48;;;;;;;;;;;;;;;9.74;56.87;96294.66;4225808;27;5835;-68
2022/12/04 11:10:59;;;;;;;;;;;;;;;9.75;56.71;96293.66;4234438;27;5111;-69
2022/12/04 11:13:05;;;;;;;;;;;;;;;9.76;57.12;96292.63;4231656;27;5610;-68
2022/12/04 11:15:15;;;;;;;;;;;;;;;9.77;56.88;96296.09;4237628;27;5712;-69
2022/12/04 11:17:19;;;;;;;;;;;;;;;9.76;57.05;96290.00;4222811;28;5778;-69
2022/12/04 11:19:24;;;;;;;;;;;;;;;9.73;56.81;96298.28;4229484;27;5614;-68
2022/12/04 11:21:29;;;;;;;;;;;;;;;9.71;56.92;96297.69;4225317;28;5525;-69
2022/12/04 11:23:35;;;;;;;;;;;;;;;9.73;56.84;96293.00;4216082;27;5669;-69
2022/12/04 11:25:45;;;;;;;;;;;;;;;9.74;56.70;96302.59;4224545;28;5681;-69
2022/12/04 11:27:51;;;;;;;;;;;;;;;9.77;56.76;96296.09;4230198;28;5714;-69
2022/12/04 11:29:55;;;;;;;;;;;;;;;9.77;56.44;96290.81;4210727;28;5606;-69
2022/12/04 11:32:01;;;;;;;;;;;;;;;9.79;56.84;96294.06;4250002;27;5595;-69
2022/12/04 11:34:18;;;;;;;;;;;;;;;9.80;56.54;96293.03;4238303;27;5855;-69
2022/12/04 11:36:23;;;;;;;;;;;;;;;9.79;56.70;96292.22;4217365;28;5803;-69
2022/12/04 11:38:29;;;;;;;;;;;;;;;9.78;56.50;96282.69;4232256;28;5669;-69
2022/12/04 11:40:32;;;;;;;;;;;;;;;9.79;56.75;96278.22;4225258;28;5673;-68
2022/12/04 11:42:35;;;;;;;;;;;;;;;9.79;56.60;96284.31;4225920;28;5614;-68
2022/12/04 11:44:37;;;;;;;;;;;;;;;9.80;56.72;96280.66;4216428;28;5659;-67
2022/12/04 11:46:52;;;;;;;;;;;;;;;9.79;56.62;96278.22;4220696;27;5747;-69
2022/12/04 11:48:56;;;;;;;;;;;;;;;9.80;56.42;96288.56;4225218;27;5838;-69
2022/12/04 11:51:10;;;;;;;;;;;;;;;9.79;56.57;96294.06;4242875;27;5586;-69
2022/12/04 11:53:18;;;;;;;;;;;;;;;9.79;56.43;96296.69;4250264;27;5607;-68
2022/12/04 11:55:25;;;;;;;;;;;;;;;9.78;56.53;96298.53;4224317;27;5701;-68
2022/12/04 11:57:40;;;;;;;;;;;;;;;9.79;56.60;96291.41;4227602;28;5833;-68
2022/12/04 12:00:02;;;;;;;;;;;;;;;9.77;56.76;96294.25;4225097;28;5707;-68
2022/12/04 12:02:30;;;;;;;;;;;;;;;9.77;56.50;96302.19;4220037;28;5624;-69
2022/12/04 12:05:01;;;;;;;;;;;;;;;9.76;56.68;96283.91;4227244;27;5778;-68
2022/12/04 12:07:18;;;;;;;;;;;;;;;9.76;56.36;96283.91;4235969;27;5771;-69
2022/12/04 12:09:29;;;;;;;;;;;;;;;9.79;56.53;96286.13;4213102;28;5731;-69
2022/12/04 12:11:37;;;;;;;;;;;;;;;9.78;56.38;96277.41;4233632;28;6409;-69
2022/12/04 12:13:49;;;;;;;;;;;;;;;9.80;56.49;96274.56;4232552;28;6304;-69
2022/12/04 12:16:04;;;;;;;;;;;;;;;9.78;56.41;96282.69;4233009;28;5590;-69
2022/12/04 12:18:34;;;;;;;;;;;;;;;9.78;56.39;96269.47;4233343;28;5611;-69
2022/12/04 12:20:47;;;;;;;;;;;;;;;9.81;56.22;96276.19;4226615;28;5784;-69
2022/12/04 12:23:11;;;;;;;;;;;;;;;9.81;56.24;96271.72;4229197;28;5532;-69
2022/12/04 12:25:20;;;;;;;;;;;;;;;9.82;55.99;96265.41;4227866;28;5636;-69
2022/12/04 12:27:42;;;;;;;;;;;;;;;9.81;56.02;96261.16;4228109;28;5629;-69
2022/12/04 12:29:55;;;;;;;;;;;;;;;9.78;56.02;96261.56;4227483;27;5741;-69
2022/12/04 12:32:10;;;;;;;;;;;;;;;9.77;56.17;96254.66;4235815;27;5642;-69
2022/12/04 12:34:20;;;;;;;;;;;;;;;9.80;56.26;96259.53;4239734;27;5812;-69
2022/12/04 12:36:27;;;;;;;;;;;;;;;9.83;56.34;96253.84;4251871;27;5694;-69
2022/12/04 12:38:35;;;;;;;;;;;;;;;9.83;56.14;96251.19;4227750;28;5598;-69
2022/12/04 12:40:43;;;;;;;;;;;;;;;9.84;56.18;96244.91;4228406;28;5629;-69
2022/12/04 12:42:52;;;;;;;;;;;;;;;9.87;56.26;96238.44;4230297;27;5733;-69
2022/12/04 12:45:05;;;;;;;;;;;;;;;9.92;55.79;96235.97;4243169;27;5814;-69
2022/12/04 12:47:14;;;;;;;;;;;;;;;9.94;56.01;96226.03;4235735;27;5719;-69
2022/12/04 12:49:20;;;;;;;;;;;;;;;9.93;55.99;96227.84;4202083;28;5690;-69
2022/12/04 12:51:35;;;;;;;;;;;;;;;9.96;55.86;96224.00;4252047;27;5794;-70
2022/12/04 12:53:42;;;;;;;;;;;;;;;9.95;55.81;96224.19;4228749;27;5797;-69
2022/12/04 12:55:49;;;;;;;;;;;;;;;9.95;55.79;96225.00;4234508;28;6143;-69
2022/12/04 12:58:00;;;;;;;;;;;;;;;9.96;55.76;96221.34;4234987;28;5590;-70
2022/12/04 13:00:06;;;;;;;;;;;;;;;9.97;56.03;96212.44;4236229;27;5600;-69
2022/12/04 13:02:19;;;;;;;;;;;;;;;9.96;55.93;96216.06;4230947;28;5602;-69
2022/12/04 13:04:29;;;;;;;;;;;;;;;9.97;55.74;96215.09;4231494;28;5799;-70
2022/12/04 13:06:37;;;;;;;;;;;;;;;9.95;56.14;96213.63;4243775;27;6621;-69
2022/12/04 13:08:44;;;;;;;;;;;;;;;9.96;55.77;96216.06;4236882;27;5594;-69
2022/12/04 13:11:02;;;;;;;;;;;;;;;10.00;56.12;96209.38;4237507;27;5827;-69
2022/12/04 13:13:10;;;;;;;;;;;;;;;10.04;55.88;96202.66;4238368;27;5594;-68
2022/12/04 13:15:15;;;;;;;;;;;;;;;10.05;55.99;96206.94;4233412;28;5688;-69
2022/12/04 13:17:25;;;;;;;;;;;;;;;10.06;55.68;96205.91;4234182;28;5681;-69
2022/12/04 13:19:32;;;;;;;;;;;;;;;10.07;55.76;96198.81;4224180;27;5665;-69
2022/12/04 13:21:42;;;;;;;;;;;;;;;10.06;55.56;96191.91;4237241;27;5679;-69
2022/12/04 13:23:55;;;;;;;;;;;;;;;10.05;55.57;96188.44;4230847;28;5886;-69
2022/12/04 13:26:06;;;;;;;;;;;;;;;10.04;55.89;96192.09;4232325;27;5587;-69
2022/12/04 13:28:21;;;;;;;;;;;;;;;10.05;55.83;96195.56;4230045;27;5845;-69
2022/12/04 13:30:29;;;;;;;;;;;;;;;10.03;55.86;96201.06;4231326;28;5628;-69
2022/12/04 13:32:48;;;;;;;;;;;;;;;10.00;56.08;96198.81;4231290;28;5598;-69
2022/12/04 13:35:01;;;;;;;;;;;;;;;9.99;56.05;96188.47;4222690;27;5166;-69
2022/12/04 13:37:25;;;;;;;;;;;;;;;9.99;55.90;96189.28;4241261;27;5673;-69
2022/12/04 13:40:09;;;;;;;;;;;;;;;10.02;55.89;96193.34;4226886;28;5685;-69
2022/12/04 13:42:21;;;;;;;;;;;;;;;10.01;55.60;96186.44;4247222;27;5587;-69
2022/12/04 13:44:26;;;;;;;;;;;;;;;10.00;56.16;96190.91;4243799;27;5599;-69
2022/12/04 13:46:32;;;;;;;;;;;;;;;10.01;56.17;96181.97;4218017;27;5621;-69
2022/12/04 13:48:39;;;;;;;;;;;;;;;10.02;56.08;96195.97;4239451;27;5606;-69
2022/12/04 13:50:42;;;;;;;;;;;;;;;10.01;56.07;96204.91;4234685;27;5787;-69
2022/12/04 13:52:48;;;;;;;;;;;;;;;10.04;55.84;96207.94;4205367;28;5635;-69
2022/12/04 13:54:57;;;;;;;;;;;;;;;10.06;55.72;96210.38;4228107;28;5676;-69
2022/12/04 13:57:21;;;;;;;;;;;;;;;10.03;55.97;96205.53;4233431;28;5670;-68
2022/12/04 13:59:37;;;;;;;;;;;;;;;10.04;55.89;96212.41;4227987;28;5762;-69
2022/12/04 14:01:44;;;;;;;;;;;;;;;10.06;56.00;96220.94;4222819;28;5988;-68
2022/12/04 14:03:54;;;;;;;;;;;;;;;10.07;55.92;96222.56;4226186;28;5911;-68
2022/12/04 14:05:58;;;;;;;;;;;;;;;10.05;56.02;96214.03;4229987;28;5622;-69
2022/12/04 14:08:08;;;;;;;;;;;;;;;10.02;55.96;96227.66;4229185;28;5715;-68
2022/12/04 14:10:27;;;;;;;;;;;;;;;10.01;55.82;96218.13;4226197;28;6316;-68
2022/12/04 14:12:33;;;;;;;;;;;;;;;10.00;56.04;96221.78;4200218;28;5683;-69
2022/12/04 14:14:42;;;;;;;;;;;;;;;10.02;56.19;96215.28;4232227;27;5606;-68
2022/12/04 14:16:49;;;;;;;;;;;;;;;10.02;56.05;96225.03;4222413;28;5949;-68
2022/12/04 14:18:54;;;;;;;;;;;;;;;10.00;56.00;96208.56;4225853;27;5665;-69
2022/12/04 14:21:00;;;;;;;;;;;;;;;10.00;56.03;96211.22;4218647;27;5677;-68
2022/12/04 14:23:25;;;;;;;;;;;;;;;9.98;56.19;96207.97;4227626;27;5666;-68
2022/12/04 14:25:37;;;;;;;;;;;;;;;10.01;56.30;96202.28;4249929;27;5591;-69
2022/12/04 14:27:45;;;;;;;;;;;;;;;10.01;55.91;96203.09;4238493;27;5614;-67
2022/12/04 14:29:52;;;;;;;;;;;;;;;10.01;56.32;96199.63;4251307;27;5668;-68
2022/12/04 14:32:00;;;;;;;;;;;;;;;9.98;56.10;96189.50;4233885;27;5780;-69
2022/12/04 14:34:11;;;;;;;;;;;;;;;9.92;56.36;96186.63;4227938;27;5661;-69
2022/12/04 14:36:19;;;;;;;;;;;;;;;9.93;55.99;96177.69;4232497;27;5702;-69
2022/12/04 14:38:23;;;;;;;;;;;;;;;9.95;56.15;96176.66;4243686;27;5662;-69
2022/12/04 14:40:29;;;;;;;;;;;;;;;9.94;55.88;96186.41;4250774;27;5578;-69
2022/12/04 14:42:37;;;;;;;;;;;;;;;9.94;56.29;96191.69;4242042;27;5655;-69
2022/12/04 14:44:40;;;;;;;;;;;;;;;9.97;56.08;96191.31;4229971;27;5800;-69
2022/12/04 14:46:47;;;;;;;;;;;;;;;9.95;56.15;96192.50;4220968;28;5605;-69
2022/12/04 14:48:59;;;;;;;;;;;;;;;9.94;55.78;96199.63;4232640;27;5695;-69
2022/12/04 14:51:10;;;;;;;;;;;;;;;9.90;55.95;96201.88;4232987;27;5583;-69
2022/12/04 14:53:24;;;;;;;;;;;;;;;9.90;55.92;96203.69;4240997;27;5601;-69
2022/12/04 14:55:35;;;;;;;;;;;;;;;9.90;56.29;96207.16;4225206;28;5658;-69
2022/12/04 14:57:46;;;;;;;;;;;;;;;9.91;55.80;96206.13;4227042;28;5843;-69
2022/12/04 14:59:52;;;;;;;;;;;;;;;9.90;56.00;96209.78;4232016;28;5628;-69
2022/12/04 15:01:55;;;;;;;;;;;;;;;9.90;56.04;96207.16;4225468;28;5703;-69
2022/12/04 15:04:06;;;;;;;;;;;;;;;9.88;56.14;96211.81;4229369;28;5727;-69
2022/12/04 15:06:16;;;;;;;;;;;;;;;9.90;56.10;96204.50;4223022;28;5590;-68
2022/12/04 15:08:19;;;;;;;;;;;;;;;9.89;56.17;96200.25;4224895;28;5701;-68
2022/12/04 15:12:47;;;;;;;;;;;;;;;9.86;55.78;96211.22;4221334;27;5759;-68
2022/12/04 15:14:50;;;;;;;;;;;;;;;9.87;55.76;96218.13;4226822;27;5684;-68
2022/12/04 15:17:02;;;;;;;;;;;;;;;9.86;55.97;96220.97;4240528;27;5578;-69
2022/12/04 15:19:05;;;;;;;;;;;;;;;9.85;55.90;96230.72;4250330;27;5586;-68
2022/12/04 15:21:11;;;;;;;;;;;;;;;9.83;55.69;96227.44;4221407;27;5747;-69
2022/12/04 15:23:16;;;;;;;;;;;;;;;9.81;55.65;96232.13;4235931;27;5111;-69
2022/12/04 15:25:21;;;;;;;;;;;;;;;9.81;55.77;96229.47;4242679;27;7300;-69
2022/12/04 15:27:25;;;;;;;;;;;;;;;9.82;55.72;96227.66;4234007;27;5771;-68
2022/12/04 15:29:41;;;;;;;;;;;;;;;9.82;55.69;96236.38;4222304;28;6267;-68
2022/12/04 15:31:52;;;;;;;;;;;;;;;9.84;56.05;96236.97;4221275;28;5725;-69
2022/12/04 15:33:57;;;;;;;;;;;;;;;9.86;55.83;96236.81;4220617;27;5712;-69
2022/12/04 15:36:06;;;;;;;;;;;;;;;9.86;55.75;96244.72;4225640;28;5762;-68
2022/12/04 15:38:12;;;;;;;;;;;;;;;9.86;56.06;96250.00;4229743;28;5625;-69
2022/12/04 15:40:21;;;;;;;;;;;;;;;9.83;56.02;96253.03;4233365;28;5586;-68
2022/12/04 15:42:27;;;;;;;;;;;;;;;9.84;56.01;96259.94;4231479;28;5632;-68
2022/12/04 15:44:31;;;;;;;;;;;;;;;9.82;55.96;96259.31;4221231;28;5608;-69
2022/12/04 15:46:37;;;;;;;;;;;;;;;9.80;55.94;96259.53;4226673;28;5677;-68
2022/12/04 15:48:40;;;;;;;;;;;;;;;9.82;55.86;96265.41;4237123;27;5785;-68
2022/12/04 15:50:56;;;;;;;;;;;;;;;9.81;55.76;96265.63;4222541;28;5601;-71
2022/12/04 15:53:02;;;;;;;;;;;;;;;9.78;55.80;96276.59;4226890;28;5609;-69
2022/12/04 15:55:08;;;;;;;;;;;;;;;9.73;55.94;96277.16;4221107;28;5711;-70
2022/12/04 15:57:18;;;;;;;;;;;;;;;9.70;55.84;96285.50;4219964;27;5680;-69
2022/12/04 15:59:21;;;;;;;;;;;;;;;9.71;55.88;96286.31;4229843;27;5679;-69
2022/12/04 16:01:24;;;;;;;;;;;;;;;9.71;55.83;96292.41;4226890;27;5677;-69
2022/12/04 16:03:30;;;;;;;;;;;;;;;9.71;55.88;96292.41;4228721;28;5630;-69
2022/12/04 16:05:36;;;;;;;;;;;;;;;9.73;55.75;96294.84;4228029;28;6392;-68
2022/12/04 16:07:49;;;;;;;;;;;;;;;9.71;55.82;96292.41;4228585;28;5613;-68
2022/12/04 16:09:54;;;;;;;;;;;;;;;9.71;55.85;96289.75;4232109;28;5602;-69
2022/12/04 16:12:18;;;;;;;;;;;;;;;9.72;55.66;96293.22;4228125;28;5618;-68
2022/12/04 16:14:21;;;;;;;;;;;;;;;9.72;55.77;96282.66;4223799;28;6381;-69
2022/12/04 16:16:24;;;;;;;;;;;;;;;9.72;55.91;96287.94;4253043;27;6505;-68
2022/12/04 16:18:29;;;;;;;;;;;;;;;9.72;55.83;96282.66;4230463;27;6695;-69
2022/12/04 16:20:33;;;;;;;;;;;;;;;9.73;55.69;96298.28;4238069;27;5695;-68
2022/12/04 16:22:39;;;;;;;;;;;;;;;9.74;55.90;96292.03;4237043;27;5665;-69
2022/12/04 16:24:43;;;;;;;;;;;;;;;9.74;55.87;96294.66;4213365;28;5887;-70
2022/12/04 16:26:46;;;;;;;;;;;;;;;9.74;55.90;96294.66;4214257;28;5808;-69
2022/12/04 16:28:48;;;;;;;;;;;;;;;9.73;55.67;96285.09;4208653;28;5879;-69
2022/12/04 16:30:52;;;;;;;;;;;;;;;9.72;55.46;96290.56;4212401;28;6357;-69
2022/12/04 16:32:55;;;;;;;;;;;;;;;9.72;55.48;96278.19;4208520;28;5723;-68
2022/12/04 16:34:59;;;;;;;;;;;;;;;9.72;55.42;96275.53;4209033;28;5813;-68
2022/12/04 16:37:06;;;;;;;;;;;;;;;9.70;55.67;96274.94;4207510;28;5919;-68
2022/12/04 16:39:09;;;;;;;;;;;;;;;9.74;55.82;96270.91;4209308;28;5796;-69
2022/12/04 16:41:13;;;;;;;;;;;;;;;9.77;55.71;96278.41;4211073;28;6160;-69
2022/12/04 16:43:17;;;;;;;;;;;;;;;9.76;55.72;96284.72;4212636;28;5837;-69
2022/12/04 16:45:24;;;;;;;;;;;;;;;9.75;55.73;96293.66;4213645;28;5692;-69
2022/12/04 16:47:28;;;;;;;;;;;;;;;9.78;55.69;96297.72;4204801;28;5731;-69
2022/12/04 16:49:30;;;;;;;;;;;;;;;9.78;55.67;96292.44;4212979;28;5708;-70
2022/12/04 16:51:36;;;;;;;;;;;;;;;9.79;55.88;96299.34;4206764;28;5882;-68
2022/12/04 16:53:39;;;;;;;;;;;;;;;9.79;55.64;96304.63;4215774;28;5692;-68
2022/12/04 16:55:45;;;;;;;;;;;;;;;9.79;55.86;96304.63;4212665;28;5732;-69
2022/12/04 16:57:48;;;;;;;;;;;;;;;9.81;55.81;96327.16;4210931;28;5668;-69
2022/12/04 16:59:50;;;;;;;;;;;;;;;9.82;55.71;96327.97;4212023;28;5680;-69
2022/12/04 17:01:53;;;;;;;;;;;;;;;9.82;55.63;96334.06;4210218;28;5852;-69
2022/12/04 17:03:56;;;;;;;;;;;;;;;9.82;55.58;96336.69;4212515;28;5800;-69
2022/12/04 17:06:00;;;;;;;;;;;;;;;9.83;55.78;96348.88;4210159;28;5785;-69
2022/12/04 17:08:04;;;;;;;;;;;;;;;9.82;55.86;96346.44;4206976;28;5784;-69
2022/12/04 17:10:07;;;;;;;;;;;;;;;9.83;55.55;96359.44;4211611;28;5680;-69
2022/12/04 17:12:10;;;;;;;;;;;;;;;9.85;55.80;96364.53;4213365;28;5771;-70
2022/12/04 17:14:13;;;;;;;;;;;;;;;9.85;55.99;96367.16;4214985;28;5795;-69
2022/12/04 17:16:16;;;;;;;;;;;;;;;9.84;55.59;96365.53;4210431;28;5781;-69
2022/12/04 17:18:21;;;;;;;;;;;;;;;9.83;56.03;96367.34;4214272;28;5668;-69
2022/12/04 17:20:24;;;;;;;;;;;;;;;9.84;55.78;96376.09;4211067;28;5823;-69
2022/12/04 17:22:27;;;;;;;;;;;;;;;9.82;55.75;96383.41;4213637;28;5878;-68
2022/12/04 17:24:31;;;;;;;;;;;;;;;9.82;55.64;96384.22;4207706;28;5682;-69
2022/12/04 17:26:34;;;;;;;;;;;;;;;9.83;55.95;96382.38;4223467;27;5861;-69
2022/12/04 17:28:37;;;;;;;;;;;;;;;9.80;55.63;96380.97;4223676;27;5828;-69
2022/12/04 17:30:39;;;;;;;;;;;;;;;9.80;55.62;96383.59;4223336;27;5820;-69
2022/12/04 17:32:42;;;;;;;;;;;;;;;9.80;55.66;96391.53;4208573;28;5795;-68
2022/12/04 17:34:45;;;;;;;;;;;;;;;9.82;55.79;96402.69;4231339;28;5851;-68
2022/12/04 17:36:47;;;;;;;;;;;;;;;9.79;55.84;96400.47;4233314;28;5609;-69
2022/12/04 17:38:53;;;;;;;;;;;;;;;9.78;55.63;96401.47;4229900;27;5590;-69
2022/12/04 17:41:01;;;;;;;;;;;;;;;9.79;55.74;96405.75;4213222;28;5628;-70
2022/12/04 17:43:04;;;;;;;;;;;;;;;9.77;55.77;96402.50;4232495;27;5817;-70
2022/12/04 17:45:09;;;;;;;;;;;;;;;9.77;55.76;96401.69;4230644;28;5594;-69
2022/12/04 17:47:12;;;;;;;;;;;;;;;9.75;55.98;96404.50;4228962;27;5699;-69
2022/12/04 17:49:15;;;;;;;;;;;;;;;9.73;55.77;96403.88;4232405;27;5792;-69
2022/12/04 17:51:19;;;;;;;;;;;;;;;9.71;55.71;96402.44;4227674;28;5818;-69
2022/12/04 17:53:22;;;;;;;;;;;;;;;9.64;55.92;96391.88;4232917;28;5594;-69
2022/12/04 17:55:26;;;;;;;;;;;;;;;9.60;55.79;96402.00;4229863;27;5654;-69
2022/12/04 17:57:30;;;;;;;;;;;;;;;9.58;55.69;96387.38;4232811;28;5692;-69
2022/12/04 17:59:33;;;;;;;;;;;;;;;9.53;55.87;96389.81;4231912;28;5614;-79
2022/12/04 18:01:38;;;;;;;;;;;;;;;9.56;56.09;96384.13;4229794;27;5622;-77
2022/12/04 18:03:42;;;;;;;;;;;;;;;9.58;55.97;96398.75;4227807;27;5724;-77
2022/12/04 18:05:45;;;;;;;;;;;;;;;9.60;56.11;96409.09;4228206;28;5403;-76
2022/12/04 18:07:48;;;;;;;;;;;;;;;9.62;55.99;96415.81;4227292;27;7668;-77
2022/12/04 18:09:51;;;;;;;;;;;;;;;9.65;55.92;96425.19;4232100;28;5617;-75
2022/12/04 18:11:55;;;;;;;;;;;;;;;9.66;56.00;96420.72;4232019;27;5598;-69
2022/12/04 18:14:01;;;;;;;;;;;;;;;9.66;55.80;96426.00;4232263;28;5951;-68
2022/12/04 18:16:12;;;;;;;;;;;;;;;9.67;55.92;96431.06;4231289;28;5827;-65
2022/12/04 18:18:15;;;;;;;;;;;;;;;9.66;55.94;96418.88;4230188;27;5733;-66
2022/12/04 18:20:18;;;;;;;;;;;;;;;9.68;56.12;96405.50;4230094;28;5787;-70
2022/12/04 18:22:20;;;;;;;;;;;;;;;9.63;55.75;96400.81;4230583;27;5601;-69
2022/12/04 18:24:25;;;;;;;;;;;;;;;9.46;55.92;96383.66;4231070;27;5692;-68
2022/12/04 18:26:33;;;;;;;;;;;;;;;9.33;56.29;96379.97;4230809;28;5578;-68
2022/12/04 18:28:35;;;;;;;;;;;;;;;9.27;56.13;96386.00;4231099;27;5690;-68
2022/12/04 18:30:39;;;;;;;;;;;;;;;9.27;56.49;96391.28;4230901;28;5088;-68
2022/12/04 18:32:43;;;;;;;;;;;;;;;9.27;56.33;96393.91;4229219;27;8384;-67
2022/12/04 18:34:46;;;;;;;;;;;;;;;9.29;56.30;96405.09;4232327;28;5634;-69
2022/12/04 18:36:49;;;;;;;;;;;;;;;9.25;56.09;96418.84;4230769;28;5586;-72
2022/12/04 18:38:56;;;;;;;;;;;;;;;9.24;56.25;96433.06;4232111;28;6286;-68
2022/12/04 18:41:02;;;;;;;;;;;;;;;9.20;56.11;96437.91;4223948;27;5812;-64
2022/12/04 18:43:05;;;;;;;;;;;;;;;9.17;56.14;96433.00;4230927;27;5844;-67
2022/12/04 18:45:09;;;;;;;;;;;;;;;9.21;56.11;96433.47;4230894;28;5680;-79
2022/12/04 18:47:13;;;;;;;;;;;;;;;9.21;56.04;96436.91;4227305;27;5733;-75